sensor_id;sensor_type;location;lat;lon;timestamp;P1;durP1;ratioP1;P2;durP2;ratioP2
8319;SDS011;4197;42.130;24.746;2023-02-04T00:00:35;12.17;;;7.40;;
8319;SDS011;4197;42.130;24.746;2023-02-04T00:03:04;9.70;;;7.50;;
8319;SDS011;4197;42.130;24.746;2023-02-04T00:05:34;10.53;;;7.60;;
8319;SDS011;4197;42.130;24.746;2023-02-04T00:08:02;9.73;;;6.70;;
8319;SDS011;4197;42.130;24.746;2023-02-04T00:10:30;10.57;;;6.77;;
8319;SDS011;4197;42.130;24.746;2023-02-04T00:12:59;10.00;;;6.90;;
8319;SDS011;4197;42.130;24.746;2023-02-04T00:15:27;10.00;;;6.93;;
8319;SDS011;4197;42.130;24.746;2023-02-04T00:17:55;9.60;;;6.83;;
8319;SDS011;4197;42.130;24.746;2023-02-04T00:20:23;7.40;;;6.60;;
8319;SDS011;4197;42.130;24.746;2023-02-04T00:22:53;11.57;;;7.53;;
8319;SDS011;4197;42.130;24.746;2023-02-04T00:25:22;10.07;;;7.07;;
8319;SDS011;4197;42.130;24.746;2023-02-04T00:27:50;8.90;;;6.90;;
8319;SDS011;4197;42.130;24.746;2023-02-04T00:30:18;10.13;;;6.83;;
8319;SDS011;4197;42.130;24.746;2023-02-04T00:32:47;8.10;;;6.77;;
8319;SDS011;4197;42.130;24.746;2023-02-04T00:35:16;9.27;;;6.80;;
8319;SDS011;4197;42.130;24.746;2023-02-04T00:37:44;7.87;;;6.57;;
8319;SDS011;4197;42.130;24.746;2023-02-04T00:40:14;9.47;;;6.53;;
8319;SDS011;4197;42.130;24.746;2023-02-04T00:42:42;10.33;;;6.63;;
8319;SDS011;4197;42.130;24.746;2023-02-04T00:45:10;7.93;;;7.13;;
8319;SDS011;4197;42.130;24.746;2023-02-04T00:47:40;8.27;;;6.33;;
8319;SDS011;4197;42.130;24.746;2023-02-04T00:50:09;8.67;;;6.00;;
8319;SDS011;4197;42.130;24.746;2023-02-04T00:52:37;8.07;;;5.97;;
8319;SDS011;4197;42.130;24.746;2023-02-04T00:55:05;8.60;;;6.40;;
8319;SDS011;4197;42.130;24.746;2023-02-04T00:57:37;9.60;;;6.80;;
8319;SDS011;4197;42.130;24.746;2023-02-04T01:00:05;8.67;;;5.87;;
8319;SDS011;4197;42.130;24.746;2023-02-04T01:02:34;9.23;;;6.10;;
8319;SDS011;4197;42.130;24.746;2023-02-04T01:05:03;8.77;;;5.77;;
8319;SDS011;4197;42.130;24.746;2023-02-04T01:07:31;7.50;;;6.27;;
8319;SDS011;4197;42.130;24.746;2023-02-04T01:10:00;8.43;;;6.47;;
8319;SDS011;4197;42.130;24.746;2023-02-04T01:12:28;8.83;;;6.63;;
8319;SDS011;4197;42.130;24.746;2023-02-04T01:14:58;10.10;;;6.60;;
8319;SDS011;4197;42.130;24.746;2023-02-04T01:17:26;11.03;;;7.50;;
8319;SDS011;4197;42.130;24.746;2023-02-04T01:19:54;9.93;;;6.97;;
8319;SDS011;4197;42.130;24.746;2023-02-04T01:22:22;10.90;;;7.20;;
8319;SDS011;4197;42.130;24.746;2023-02-04T01:24:50;10.67;;;7.67;;
8319;SDS011;4197;42.130;24.746;2023-02-04T01:27:18;11.63;;;8.30;;
8319;SDS011;4197;42.130;24.746;2023-02-04T01:29:46;12.40;;;8.53;;
8319;SDS011;4197;42.130;24.746;2023-02-04T01:32:16;13.70;;;8.27;;
8319;SDS011;4197;42.130;24.746;2023-02-04T01:34:44;16.30;;;10.33;;
8319;SDS011;4197;42.130;24.746;2023-02-04T01:37:12;13.70;;;9.60;;
8319;SDS011;4197;42.130;24.746;2023-02-04T01:39:40;13.77;;;9.77;;
8319;SDS011;4197;42.130;24.746;2023-02-04T01:42:08;15.73;;;10.07;;
8319;SDS011;4197;42.130;24.746;2023-02-04T01:44:38;11.77;;;9.37;;
8319;SDS011;4197;42.130;24.746;2023-02-04T01:47:06;13.60;;;9.27;;
8319;SDS011;4197;42.130;24.746;2023-02-04T01:49:36;12.33;;;9.27;;
8319;SDS011;4197;42.130;24.746;2023-02-04T01:52:04;13.63;;;9.13;;
8319;SDS011;4197;42.130;24.746;2023-02-04T01:54:32;15.47;;;9.77;;
8319;SDS011;4197;42.130;24.746;2023-02-04T01:57:00;12.83;;;9.70;;
8319;SDS011;4197;42.130;24.746;2023-02-04T01:59:30;17.60;;;9.80;;
8319;SDS011;4197;42.130;24.746;2023-02-04T02:02:00;15.97;;;10.50;;
8319;SDS011;4197;42.130;24.746;2023-02-04T02:04:28;14.87;;;10.17;;
8319;SDS011;4197;42.130;24.746;2023-02-04T02:07:01;15.50;;;10.57;;
8319;SDS011;4197;42.130;24.746;2023-02-04T02:09:31;12.40;;;9.07;;
8319;SDS011;4197;42.130;24.746;2023-02-04T02:12:01;13.10;;;10.00;;
8319;SDS011;4197;42.130;24.746;2023-02-04T02:14:30;16.40;;;9.53;;
8319;SDS011;4197;42.130;24.746;2023-02-04T02:16:58;11.93;;;8.70;;
8319;SDS011;4197;42.130;24.746;2023-02-04T02:19:27;13.30;;;8.97;;
8319;SDS011;4197;42.130;24.746;2023-02-04T02:22:02;12.30;;;8.90;;
8319;SDS011;4197;42.130;24.746;2023-02-04T02:24:38;19.00;;;9.60;;
8319;SDS011;4197;42.130;24.746;2023-02-04T02:27:07;20.43;;;9.93;;
8319;SDS011;4197;42.130;24.746;2023-02-04T02:29:38;15.07;;;9.97;;
8319;SDS011;4197;42.130;24.746;2023-02-04T02:32:08;16.13;;;9.30;;
8319;SDS011;4197;42.130;24.746;2023-02-04T02:34:39;17.77;;;9.83;;
8319;SDS011;4197;42.130;24.746;2023-02-04T02:37:08;14.97;;;10.00;;
8319;SDS011;4197;42.130;24.746;2023-02-04T02:39:38;17.03;;;10.10;;
8319;SDS011;4197;42.130;24.746;2023-02-04T02:42:10;12.50;;;9.27;;
8319;SDS011;4197;42.130;24.746;2023-02-04T02:44:41;11.63;;;8.80;;
8319;SDS011;4197;42.130;24.746;2023-02-04T02:47:12;11.50;;;8.27;;
8319;SDS011;4197;42.130;24.746;2023-02-04T02:49:41;14.13;;;9.73;;
8319;SDS011;4197;42.130;24.746;2023-02-04T02:52:13;13.73;;;9.67;;
8319;SDS011;4197;42.130;24.746;2023-02-04T02:54:43;14.63;;;9.53;;
8319;SDS011;4197;42.130;24.746;2023-02-04T02:57:12;12.73;;;9.30;;
8319;SDS011;4197;42.130;24.746;2023-02-04T02:59:41;11.73;;;9.20;;
8319;SDS011;4197;42.130;24.746;2023-02-04T03:02:10;14.03;;;9.57;;
8319;SDS011;4197;42.130;24.746;2023-02-04T03:04:42;12.47;;;9.70;;
8319;SDS011;4197;42.130;24.746;2023-02-04T03:07:13;13.97;;;8.97;;
8319;SDS011;4197;42.130;24.746;2023-02-04T03:09:45;12.33;;;8.93;;
8319;SDS011;4197;42.130;24.746;2023-02-04T03:12:13;12.73;;;9.20;;
8319;SDS011;4197;42.130;24.746;2023-02-04T03:14:41;10.43;;;8.40;;
8319;SDS011;4197;42.130;24.746;2023-02-04T03:17:10;15.63;;;10.13;;
8319;SDS011;4197;42.130;24.746;2023-02-04T03:19:38;12.53;;;9.17;;
8319;SDS011;4197;42.130;24.746;2023-02-04T03:22:07;15.47;;;9.43;;
8319;SDS011;4197;42.130;24.746;2023-02-04T03:24:35;17.97;;;10.20;;
8319;SDS011;4197;42.130;24.746;2023-02-04T03:27:05;12.87;;;9.53;;
8319;SDS011;4197;42.130;24.746;2023-02-04T03:29:39;16.03;;;10.50;;
8319;SDS011;4197;42.130;24.746;2023-02-04T03:32:09;16.07;;;11.10;;
8319;SDS011;4197;42.130;24.746;2023-02-04T03:34:38;19.10;;;10.73;;
8319;SDS011;4197;42.130;24.746;2023-02-04T03:37:06;11.67;;;9.70;;
8319;SDS011;4197;42.130;24.746;2023-02-04T03:39:34;16.60;;;10.17;;
8319;SDS011;4197;42.130;24.746;2023-02-04T03:42:02;20.60;;;11.07;;
8319;SDS011;4197;42.130;24.746;2023-02-04T03:44:32;13.90;;;10.40;;
8319;SDS011;4197;42.130;24.746;2023-02-04T03:47:00;17.20;;;9.27;;
8319;SDS011;4197;42.130;24.746;2023-02-04T03:49:28;16.60;;;10.57;;
8319;SDS011;4197;42.130;24.746;2023-02-04T03:51:57;16.50;;;10.57;;
8319;SDS011;4197;42.130;24.746;2023-02-04T03:54:25;17.20;;;10.67;;
8319;SDS011;4197;42.130;24.746;2023-02-04T03:56:53;17.33;;;10.57;;
8319;SDS011;4197;42.130;24.746;2023-02-04T03:59:22;18.37;;;11.50;;
8319;SDS011;4197;42.130;24.746;2023-02-04T04:01:51;19.37;;;12.53;;
8319;SDS011;4197;42.130;24.746;2023-02-04T04:04:19;17.63;;;12.20;;
8319;SDS011;4197;42.130;24.746;2023-02-04T04:06:48;21.47;;;13.07;;
8319;SDS011;4197;42.130;24.746;2023-02-04T04:09:16;14.53;;;10.53;;
8319;SDS011;4197;42.130;24.746;2023-02-04T04:11:44;22.77;;;13.40;;
8319;SDS011;4197;42.130;24.746;2023-02-04T04:14:12;22.27;;;13.13;;
8319;SDS011;4197;42.130;24.746;2023-02-04T04:16:40;17.50;;;11.53;;
8319;SDS011;4197;42.130;24.746;2023-02-04T04:19:09;16.23;;;10.20;;
8319;SDS011;4197;42.130;24.746;2023-02-04T04:21:38;21.67;;;11.17;;
8319;SDS011;4197;42.130;24.746;2023-02-04T04:24:06;19.20;;;11.20;;
8319;SDS011;4197;42.130;24.746;2023-02-04T04:26:34;18.20;;;10.63;;
8319;SDS011;4197;42.130;24.746;2023-02-04T04:29:02;14.03;;;9.77;;
8319;SDS011;4197;42.130;24.746;2023-02-04T04:31:30;14.80;;;9.43;;
8319;SDS011;4197;42.130;24.746;2023-02-04T04:33:59;12.37;;;9.00;;
8319;SDS011;4197;42.130;24.746;2023-02-04T04:36:29;16.10;;;10.57;;
8319;SDS011;4197;42.130;24.746;2023-02-04T04:38:57;15.53;;;10.40;;
8319;SDS011;4197;42.130;24.746;2023-02-04T04:41:25;18.13;;;11.13;;
8319;SDS011;4197;42.130;24.746;2023-02-04T04:43:53;17.23;;;11.17;;
8319;SDS011;4197;42.130;24.746;2023-02-04T04:46:21;118.43;;;52.20;;
8319;SDS011;4197;42.130;24.746;2023-02-04T04:48:49;117.23;;;50.33;;
8319;SDS011;4197;42.130;24.746;2023-02-04T04:51:18;194.20;;;81.03;;
8319;SDS011;4197;42.130;24.746;2023-02-04T04:53:47;168.20;;;72.30;;
8319;SDS011;4197;42.130;24.746;2023-02-04T04:56:15;84.03;;;40.23;;
8319;SDS011;4197;42.130;24.746;2023-02-04T04:58:44;66.93;;;32.57;;
8319;SDS011;4197;42.130;24.746;2023-02-04T05:01:12;56.93;;;32.40;;
8319;SDS011;4197;42.130;24.746;2023-02-04T05:03:40;42.60;;;24.17;;
8319;SDS011;4197;42.130;24.746;2023-02-04T05:06:09;31.83;;;19.57;;
8319;SDS011;4197;42.130;24.746;2023-02-04T05:08:38;27.43;;;16.50;;
8319;SDS011;4197;42.130;24.746;2023-02-04T05:11:07;23.10;;;14.67;;
8319;SDS011;4197;42.130;24.746;2023-02-04T05:13:35;24.50;;;14.23;;
8319;SDS011;4197;42.130;24.746;2023-02-04T05:16:04;21.87;;;14.37;;
8319;SDS011;4197;42.130;24.746;2023-02-04T05:18:32;20.10;;;13.20;;
8319;SDS011;4197;42.130;24.746;2023-02-04T05:21:00;24.37;;;13.40;;
8319;SDS011;4197;42.130;24.746;2023-02-04T05:23:28;21.77;;;12.83;;
8319;SDS011;4197;42.130;24.746;2023-02-04T05:25:56;22.23;;;12.00;;
8319;SDS011;4197;42.130;24.746;2023-02-04T05:28:26;18.23;;;10.23;;
8319;SDS011;4197;42.130;24.746;2023-02-04T05:30:54;15.23;;;10.80;;
8319;SDS011;4197;42.130;24.746;2023-02-04T05:33:22;19.67;;;11.50;;
8319;SDS011;4197;42.130;24.746;2023-02-04T05:35:51;16.77;;;10.80;;
8319;SDS011;4197;42.130;24.746;2023-02-04T05:38:19;18.10;;;11.07;;
8319;SDS011;4197;42.130;24.746;2023-02-04T05:40:56;20.70;;;10.70;;
8319;SDS011;4197;42.130;24.746;2023-02-04T05:43:34;19.50;;;10.20;;
8319;SDS011;4197;42.130;24.746;2023-02-04T05:46:26;19.07;;;10.60;;
8319;SDS011;4197;42.130;24.746;2023-02-04T05:48:59;17.73;;;9.70;;
8319;SDS011;4197;42.130;24.746;2023-02-04T05:51:27;15.97;;;10.33;;
8319;SDS011;4197;42.130;24.746;2023-02-04T05:53:55;16.50;;;10.93;;
8319;SDS011;4197;42.130;24.746;2023-02-04T05:56:24;15.20;;;10.47;;
8319;SDS011;4197;42.130;24.746;2023-02-04T05:59:04;17.97;;;10.63;;
8319;SDS011;4197;42.130;24.746;2023-02-04T06:01:46;19.40;;;10.37;;
8319;SDS011;4197;42.130;24.746;2023-02-04T06:04:14;19.37;;;10.20;;
8319;SDS011;4197;42.130;24.746;2023-02-04T06:06:43;13.80;;;10.03;;
8319;SDS011;4197;42.130;24.746;2023-02-04T06:09:11;16.93;;;9.37;;
8319;SDS011;4197;42.130;24.746;2023-02-04T06:11:40;22.07;;;11.43;;
8319;SDS011;4197;42.130;24.746;2023-02-04T06:14:09;20.90;;;10.53;;
8319;SDS011;4197;42.130;24.746;2023-02-04T06:16:37;16.90;;;10.67;;
8319;SDS011;4197;42.130;24.746;2023-02-04T06:19:06;19.33;;;10.03;;
8319;SDS011;4197;42.130;24.746;2023-02-04T06:21:38;17.30;;;11.00;;
8319;SDS011;4197;42.130;24.746;2023-02-04T06:24:06;17.67;;;11.50;;
8319;SDS011;4197;42.130;24.746;2023-02-04T06:26:34;22.90;;;12.47;;
8319;SDS011;4197;42.130;24.746;2023-02-04T06:29:03;22.83;;;13.67;;
8319;SDS011;4197;42.130;24.746;2023-02-04T06:31:32;28.10;;;17.83;;
8319;SDS011;4197;42.130;24.746;2023-02-04T06:34:03;30.50;;;18.40;;
8319;SDS011;4197;42.130;24.746;2023-02-04T06:36:32;29.80;;;19.57;;
8319;SDS011;4197;42.130;24.746;2023-02-04T06:39:00;32.23;;;19.00;;
8319;SDS011;4197;42.130;24.746;2023-02-04T06:41:32;36.37;;;20.83;;
8319;SDS011;4197;42.130;24.746;2023-02-04T06:44:01;31.43;;;18.53;;
8319;SDS011;4197;42.130;24.746;2023-02-04T06:46:55;38.97;;;21.33;;
8319;SDS011;4197;42.130;24.746;2023-02-04T06:49:23;42.60;;;23.73;;
8319;SDS011;4197;42.130;24.746;2023-02-04T06:51:59;33.83;;;19.60;;
8319;SDS011;4197;42.130;24.746;2023-02-04T06:54:34;29.33;;;18.87;;
8319;SDS011;4197;42.130;24.746;2023-02-04T06:57:06;28.00;;;16.83;;
8319;SDS011;4197;42.130;24.746;2023-02-04T06:59:37;25.53;;;15.33;;
8319;SDS011;4197;42.130;24.746;2023-02-04T07:02:10;25.00;;;15.03;;
8319;SDS011;4197;42.130;24.746;2023-02-04T07:04:39;18.40;;;13.40;;
8319;SDS011;4197;42.130;24.746;2023-02-04T07:07:09;21.30;;;13.87;;
8319;SDS011;4197;42.130;24.746;2023-02-04T07:09:37;24.30;;;13.90;;
8319;SDS011;4197;42.130;24.746;2023-02-04T07:12:07;25.70;;;15.17;;
8319;SDS011;4197;42.130;24.746;2023-02-04T07:14:53;25.42;;;17.17;;
8319;SDS011;4197;42.130;24.746;2023-02-04T07:17:23;22.90;;;15.27;;
8319;SDS011;4197;42.130;24.746;2023-02-04T07:19:51;21.20;;;15.23;;
8319;SDS011;4197;42.130;24.746;2023-02-04T07:22:20;19.47;;;12.73;;
8319;SDS011;4197;42.130;24.746;2023-02-04T07:24:48;18.70;;;12.13;;
8319;SDS011;4197;42.130;24.746;2023-02-04T07:27:16;20.07;;;12.07;;
8319;SDS011;4197;42.130;24.746;2023-02-04T07:29:44;21.87;;;12.53;;
8319;SDS011;4197;42.130;24.746;2023-02-04T07:32:12;20.20;;;11.43;;
8319;SDS011;4197;42.130;24.746;2023-02-04T07:34:42;18.10;;;11.40;;
8319;SDS011;4197;42.130;24.746;2023-02-04T07:37:10;16.80;;;10.93;;
8319;SDS011;4197;42.130;24.746;2023-02-04T07:39:38;19.50;;;11.83;;
8319;SDS011;4197;42.130;24.746;2023-02-04T07:42:07;15.90;;;10.63;;
8319;SDS011;4197;42.130;24.746;2023-02-04T07:44:36;16.67;;;10.07;;
8319;SDS011;4197;42.130;24.746;2023-02-04T07:47:05;12.57;;;8.93;;
8319;SDS011;4197;42.130;24.746;2023-02-04T07:49:33;15.27;;;6.57;;
8319;SDS011;4197;42.130;24.746;2023-02-04T07:52:02;10.77;;;5.10;;
8319;SDS011;4197;42.130;24.746;2023-02-04T07:54:31;10.17;;;5.23;;
8319;SDS011;4197;42.130;24.746;2023-02-04T07:57:01;6.00;;;4.20;;
8319;SDS011;4197;42.130;24.746;2023-02-04T07:59:29;7.57;;;4.57;;
8319;SDS011;4197;42.130;24.746;2023-02-04T08:01:57;8.10;;;4.50;;
8319;SDS011;4197;42.130;24.746;2023-02-04T08:04:27;5.70;;;4.10;;
8319;SDS011;4197;42.130;24.746;2023-02-04T08:06:55;5.57;;;3.90;;
8319;SDS011;4197;42.130;24.746;2023-02-04T08:09:25;10.97;;;5.17;;
8319;SDS011;4197;42.130;24.746;2023-02-04T08:11:54;5.10;;;3.67;;
8319;SDS011;4197;42.130;24.746;2023-02-04T08:14:24;3.73;;;3.17;;
8319;SDS011;4197;42.130;24.746;2023-02-04T08:16:52;6.87;;;3.07;;
8319;SDS011;4197;42.130;24.746;2023-02-04T08:19:20;6.43;;;3.50;;
8319;SDS011;4197;42.130;24.746;2023-02-04T08:21:48;4.73;;;2.93;;
8319;SDS011;4197;42.130;24.746;2023-02-04T08:24:16;3.63;;;3.20;;
8319;SDS011;4197;42.130;24.746;2023-02-04T08:26:46;5.60;;;3.00;;
8319;SDS011;4197;42.130;24.746;2023-02-04T08:29:16;4.53;;;3.10;;
8319;SDS011;4197;42.130;24.746;2023-02-04T08:31:44;5.57;;;3.53;;
8319;SDS011;4197;42.130;24.746;2023-02-04T08:34:13;4.43;;;2.73;;
8319;SDS011;4197;42.130;24.746;2023-02-04T08:36:41;4.90;;;3.20;;
8319;SDS011;4197;42.130;24.746;2023-02-04T08:39:10;4.03;;;2.53;;
8319;SDS011;4197;42.130;24.746;2023-02-04T08:41:38;7.67;;;3.63;;
8319;SDS011;4197;42.130;24.746;2023-02-04T08:44:08;7.77;;;2.63;;
8319;SDS011;4197;42.130;24.746;2023-02-04T08:46:37;2.40;;;2.20;;
8319;SDS011;4197;42.130;24.746;2023-02-04T08:49:05;3.13;;;2.23;;
8319;SDS011;4197;42.130;24.746;2023-02-04T08:51:33;5.10;;;2.30;;
8319;SDS011;4197;42.130;24.746;2023-02-04T08:54:01;5.87;;;2.07;;
8319;SDS011;4197;42.130;24.746;2023-02-04T08:56:29;7.57;;;2.37;;
8319;SDS011;4197;42.130;24.746;2023-02-04T08:58:58;7.40;;;2.40;;
8319;SDS011;4197;42.130;24.746;2023-02-04T09:01:32;3.93;;;2.03;;
8319;SDS011;4197;42.130;24.746;2023-02-04T09:04:16;4.27;;;2.40;;
8319;SDS011;4197;42.130;24.746;2023-02-04T09:06:48;5.17;;;2.60;;
8319;SDS011;4197;42.130;24.746;2023-02-04T09:09:22;3.23;;;2.30;;
8319;SDS011;4197;42.130;24.746;2023-02-04T09:11:57;2.57;;;1.63;;
8319;SDS011;4197;42.130;24.746;2023-02-04T09:14:27;5.47;;;1.73;;
8319;SDS011;4197;42.130;24.746;2023-02-04T09:16:56;2.60;;;1.90;;
8319;SDS011;4197;42.130;24.746;2023-02-04T09:19:24;3.27;;;2.13;;
8319;SDS011;4197;42.130;24.746;2023-02-04T09:21:52;1.90;;;1.70;;
8319;SDS011;4197;42.130;24.746;2023-02-04T09:24:21;7.03;;;2.73;;
8319;SDS011;4197;42.130;24.746;2023-02-04T09:26:49;5.07;;;2.23;;
8319;SDS011;4197;42.130;24.746;2023-02-04T09:29:17;2.33;;;1.93;;
8319;SDS011;4197;42.130;24.746;2023-02-04T09:31:46;2.80;;;2.20;;
8319;SDS011;4197;42.130;24.746;2023-02-04T09:34:15;2.20;;;2.00;;
8319;SDS011;4197;42.130;24.746;2023-02-04T09:36:44;3.80;;;1.63;;
8319;SDS011;4197;42.130;24.746;2023-02-04T09:39:12;3.30;;;1.63;;
8319;SDS011;4197;42.130;24.746;2023-02-04T09:41:40;4.10;;;1.80;;
8319;SDS011;4197;42.130;24.746;2023-02-04T09:44:12;2.87;;;2.33;;
8319;SDS011;4197;42.130;24.746;2023-02-04T09:46:43;2.77;;;2.20;;
8319;SDS011;4197;42.130;24.746;2023-02-04T09:49:17;2.93;;;2.03;;
8319;SDS011;4197;42.130;24.746;2023-02-04T09:51:45;2.83;;;2.27;;
8319;SDS011;4197;42.130;24.746;2023-02-04T09:54:17;2.53;;;1.97;;
8319;SDS011;4197;42.130;24.746;2023-02-04T09:56:47;2.07;;;1.87;;
8319;SDS011;4197;42.130;24.746;2023-02-04T09:59:16;4.40;;;2.40;;
8319;SDS011;4197;42.130;24.746;2023-02-04T10:01:46;2.60;;;1.77;;
8319;SDS011;4197;42.130;24.746;2023-02-04T10:04:20;3.50;;;1.97;;
8319;SDS011;4197;42.130;24.746;2023-02-04T10:06:49;3.20;;;1.73;;
8319;SDS011;4197;42.130;24.746;2023-02-04T10:09:17;2.27;;;1.73;;
8319;SDS011;4197;42.130;24.746;2023-02-04T10:11:46;3.03;;;1.93;;
8319;SDS011;4197;42.130;24.746;2023-02-04T10:14:17;4.00;;;2.10;;
8319;SDS011;4197;42.130;24.746;2023-02-04T10:16:50;3.10;;;1.73;;
8319;SDS011;4197;42.130;24.746;2023-02-04T10:19:25;6.20;;;2.53;;
8319;SDS011;4197;42.130;24.746;2023-02-04T10:21:55;2.90;;;2.07;;
8319;SDS011;4197;42.130;24.746;2023-02-04T10:24:24;9.57;;;2.47;;
8319;SDS011;4197;42.130;24.746;2023-02-04T10:27:05;2.27;;;2.07;;
8319;SDS011;4197;42.130;24.746;2023-02-04T10:29:34;2.30;;;1.60;;
8319;SDS011;4197;42.130;24.746;2023-02-04T10:32:02;3.53;;;1.70;;
8319;SDS011;4197;42.130;24.746;2023-02-04T10:34:33;3.17;;;1.90;;
8319;SDS011;4197;42.130;24.746;2023-02-04T10:37:10;5.10;;;2.10;;
8319;SDS011;4197;42.130;24.746;2023-02-04T10:39:41;3.27;;;2.00;;
8319;SDS011;4197;42.130;24.746;2023-02-04T10:42:17;3.40;;;2.20;;
8319;SDS011;4197;42.130;24.746;2023-02-04T10:44:48;3.60;;;2.00;;
8319;SDS011;4197;42.130;24.746;2023-02-04T10:47:17;5.43;;;2.53;;
8319;SDS011;4197;42.130;24.746;2023-02-04T10:49:52;5.10;;;2.33;;
8319;SDS011;4197;42.130;24.746;2023-02-04T10:52:22;5.10;;;2.57;;
8319;SDS011;4197;42.130;24.746;2023-02-04T10:54:56;2.10;;;1.90;;
8319;SDS011;4197;42.130;24.746;2023-02-04T10:57:25;3.03;;;2.00;;
8319;SDS011;4197;42.130;24.746;2023-02-04T10:59:56;2.87;;;2.20;;
8319;SDS011;4197;42.130;24.746;2023-02-04T11:05:16;3.33;;;1.93;;
8319;SDS011;4197;42.130;24.746;2023-02-04T11:07:46;5.17;;;2.13;;
8319;SDS011;4197;42.130;24.746;2023-02-04T11:10:16;2.47;;;1.80;;
8319;SDS011;4197;42.130;24.746;2023-02-04T11:12:46;2.17;;;1.83;;
8319;SDS011;4197;42.130;24.746;2023-02-04T11:15:37;5.17;;;2.87;;
8319;SDS011;4197;42.130;24.746;2023-02-04T11:18:09;2.07;;;1.83;;
8319;SDS011;4197;42.130;24.746;2023-02-04T11:20:40;3.73;;;1.70;;
8319;SDS011;4197;42.130;24.746;2023-02-04T11:26:00;2.60;;;1.73;;
8319;SDS011;4197;42.130;24.746;2023-02-04T11:28:50;3.03;;;1.50;;
8319;SDS011;4197;42.130;24.746;2023-02-04T11:31:43;2.40;;;1.77;;
8319;SDS011;4197;42.130;24.746;2023-02-04T11:34:25;4.07;;;2.07;;
8319;SDS011;4197;42.130;24.746;2023-02-04T11:40:01;10.83;;;2.23;;
8319;SDS011;4197;42.130;24.746;2023-02-04T11:42:47;2.30;;;1.63;;
8319;SDS011;4197;42.130;24.746;2023-02-04T11:45:17;2.50;;;1.70;;
8319;SDS011;4197;42.130;24.746;2023-02-04T11:47:47;4.00;;;2.00;;
8319;SDS011;4197;42.130;24.746;2023-02-04T11:50:19;3.13;;;2.20;;
8319;SDS011;4197;42.130;24.746;2023-02-04T11:52:50;2.63;;;1.90;;
8319;SDS011;4197;42.130;24.746;2023-02-04T11:55:21;1.87;;;1.53;;
8319;SDS011;4197;42.130;24.746;2023-02-04T11:57:50;4.80;;;1.80;;
8319;SDS011;4197;42.130;24.746;2023-02-04T12:00:20;3.40;;;2.60;;
8319;SDS011;4197;42.130;24.746;2023-02-04T12:02:53;3.97;;;1.73;;
8319;SDS011;4197;42.130;24.746;2023-02-04T12:05:28;3.53;;;2.00;;
8319;SDS011;4197;42.130;24.746;2023-02-04T12:08:09;2.40;;;2.13;;
8319;SDS011;4197;42.130;24.746;2023-02-04T12:10:46;3.27;;;2.20;;
8319;SDS011;4197;42.130;24.746;2023-02-04T12:13:16;2.30;;;2.00;;
8319;SDS011;4197;42.130;24.746;2023-02-04T12:15:51;3.73;;;2.10;;
8319;SDS011;4197;42.130;24.746;2023-02-04T12:18:30;3.13;;;1.70;;
8319;SDS011;4197;42.130;24.746;2023-02-04T12:21:00;2.97;;;2.13;;
8319;SDS011;4197;42.130;24.746;2023-02-04T12:23:29;4.13;;;2.13;;
8319;SDS011;4197;42.130;24.746;2023-02-04T12:25:59;1.90;;;1.70;;
8319;SDS011;4197;42.130;24.746;2023-02-04T12:28:27;1.90;;;1.80;;
8319;SDS011;4197;42.130;24.746;2023-02-04T12:30:56;2.70;;;1.60;;
8319;SDS011;4197;42.130;24.746;2023-02-04T12:33:24;5.37;;;2.10;;
8319;SDS011;4197;42.130;24.746;2023-02-04T12:35:52;6.53;;;2.57;;
8319;SDS011;4197;42.130;24.746;2023-02-04T12:38:20;2.77;;;1.93;;
8319;SDS011;4197;42.130;24.746;2023-02-04T12:40:48;1.60;;;1.50;;
8319;SDS011;4197;42.130;24.746;2023-02-04T12:43:18;2.17;;;1.93;;
8319;SDS011;4197;42.130;24.746;2023-02-04T12:45:46;1.97;;;1.63;;
8319;SDS011;4197;42.130;24.746;2023-02-04T12:48:15;2.40;;;2.00;;
8319;SDS011;4197;42.130;24.746;2023-02-04T12:50:43;1.97;;;1.73;;
8319;SDS011;4197;42.130;24.746;2023-02-04T12:53:11;2.33;;;2.00;;
8319;SDS011;4197;42.130;24.746;2023-02-04T12:55:39;2.87;;;1.73;;
8319;SDS011;4197;42.130;24.746;2023-02-04T12:58:08;2.20;;;1.53;;
8319;SDS011;4197;42.130;24.746;2023-02-04T13:00:37;1.90;;;1.70;;
8319;SDS011;4197;42.130;24.746;2023-02-04T13:03:06;2.07;;;1.87;;
8319;SDS011;4197;42.130;24.746;2023-02-04T13:05:34;7.77;;;2.30;;
8319;SDS011;4197;42.130;24.746;2023-02-04T13:08:02;1.67;;;1.50;;
8319;SDS011;4197;42.130;24.746;2023-02-04T13:10:31;1.77;;;1.67;;
8319;SDS011;4197;42.130;24.746;2023-02-04T13:12:59;2.70;;;1.70;;
8319;SDS011;4197;42.130;24.746;2023-02-04T13:15:30;2.90;;;2.17;;
8319;SDS011;4197;42.130;24.746;2023-02-04T13:18:00;1.90;;;1.73;;
8319;SDS011;4197;42.130;24.746;2023-02-04T13:20:28;2.23;;;1.80;;
8319;SDS011;4197;42.130;24.746;2023-02-04T13:22:56;3.67;;;1.70;;
8319;SDS011;4197;42.130;24.746;2023-02-04T13:25:24;2.23;;;1.70;;
8319;SDS011;4197;42.130;24.746;2023-02-04T13:27:52;1.97;;;1.80;;
8319;SDS011;4197;42.130;24.746;2023-02-04T13:30:20;2.97;;;1.60;;
8319;SDS011;4197;42.130;24.746;2023-02-04T13:32:49;6.80;;;2.20;;
8319;SDS011;4197;42.130;24.746;2023-02-04T13:35:18;2.80;;;2.03;;
8319;SDS011;4197;42.130;24.746;2023-02-04T13:37:46;2.20;;;1.70;;
8319;SDS011;4197;42.130;24.746;2023-02-04T13:40:15;4.63;;;2.00;;
8319;SDS011;4197;42.130;24.746;2023-02-04T13:42:43;4.07;;;1.63;;
8319;SDS011;4197;42.130;24.746;2023-02-04T13:45:11;2.37;;;1.70;;
8319;SDS011;4197;42.130;24.746;2023-02-04T13:47:41;1.57;;;1.47;;
8319;SDS011;4197;42.130;24.746;2023-02-04T13:50:09;2.33;;;1.60;;
8319;SDS011;4197;42.130;24.746;2023-02-04T13:52:39;2.43;;;1.70;;
8319;SDS011;4197;42.130;24.746;2023-02-04T13:55:07;9.30;;;1.93;;
8319;SDS011;4197;42.130;24.746;2023-02-04T13:57:36;1.67;;;1.47;;
8319;SDS011;4197;42.130;24.746;2023-02-04T14:00:05;1.53;;;1.43;;
8319;SDS011;4197;42.130;24.746;2023-02-04T14:02:33;4.53;;;1.80;;
8319;SDS011;4197;42.130;24.746;2023-02-04T14:05:02;5.00;;;2.27;;
8319;SDS011;4197;42.130;24.746;2023-02-04T14:07:30;3.83;;;2.63;;
8319;SDS011;4197;42.130;24.746;2023-02-04T14:10:00;9.30;;;2.87;;
8319;SDS011;4197;42.130;24.746;2023-02-04T14:12:28;4.20;;;3.00;;
8319;SDS011;4197;42.130;24.746;2023-02-04T14:14:56;5.97;;;2.77;;
8319;SDS011;4197;42.130;24.746;2023-02-04T14:17:24;4.50;;;2.70;;
8319;SDS011;4197;42.130;24.746;2023-02-04T14:19:53;3.70;;;2.60;;
8319;SDS011;4197;42.130;24.746;2023-02-04T14:22:21;4.23;;;2.90;;
8319;SDS011;4197;42.130;24.746;2023-02-04T14:24:49;3.43;;;3.13;;
8319;SDS011;4197;42.130;24.746;2023-02-04T14:27:18;2.67;;;2.03;;
8319;SDS011;4197;42.130;24.746;2023-02-04T14:29:46;3.47;;;2.43;;
8319;SDS011;4197;42.130;24.746;2023-02-04T14:32:14;3.40;;;2.80;;
8319;SDS011;4197;42.130;24.746;2023-02-04T14:34:43;5.00;;;2.63;;
8319;SDS011;4197;42.130;24.746;2023-02-04T14:37:11;3.10;;;2.80;;
8319;SDS011;4197;42.130;24.746;2023-02-04T14:39:39;7.17;;;2.97;;
8319;SDS011;4197;42.130;24.746;2023-02-04T14:42:08;2.57;;;1.80;;
8319;SDS011;4197;42.130;24.746;2023-02-04T14:44:37;2.80;;;2.37;;
8319;SDS011;4197;42.130;24.746;2023-02-04T14:47:05;2.90;;;2.60;;
8319;SDS011;4197;42.130;24.746;2023-02-04T14:49:33;3.80;;;3.30;;
8319;SDS011;4197;42.130;24.746;2023-02-04T14:52:03;5.83;;;3.40;;
8319;SDS011;4197;42.130;24.746;2023-02-04T14:54:32;9.47;;;6.33;;
8319;SDS011;4197;42.130;24.746;2023-02-04T14:57:00;6.30;;;3.60;;
8319;SDS011;4197;42.130;24.746;2023-02-04T14:59:28;3.40;;;3.10;;
8319;SDS011;4197;42.130;24.746;2023-02-04T15:01:57;5.60;;;3.20;;
8319;SDS011;4197;42.130;24.746;2023-02-04T15:04:25;6.67;;;3.37;;
8319;SDS011;4197;42.130;24.746;2023-02-04T15:06:54;5.53;;;3.30;;
8319;SDS011;4197;42.130;24.746;2023-02-04T15:09:23;2.23;;;1.90;;
8319;SDS011;4197;42.130;24.746;2023-02-04T15:11:51;2.33;;;2.13;;
8319;SDS011;4197;42.130;24.746;2023-02-04T15:14:19;2.70;;;1.80;;